sensor_id;sensor_type;location;lat;lon;timestamp;pressure;altitude;pressure_sealevel;temperature;humidity
75166;BME280;63747;48.042;10.088;2022-10-28T00:02:38;96100.97;;;9.72;71.43
75166;BME280;63747;48.042;10.088;2022-10-28T00:05:39;96093.19;;;9.71;71.41
75166;BME280;63747;48.042;10.088;2022-10-28T00:08:41;96093.34;;;9.69;71.62
75166;BME280;63747;48.042;10.088;2022-10-28T00:11:42;96096.41;;;9.65;71.43
75166;BME280;63747;48.042;10.088;2022-10-28T00:14:42;96097.09;;;9.67;71.13
75166;BME280;63747;48.042;10.088;2022-10-28T00:17:43;96098.75;;;9.68;71.36
75166;BME280;63747;48.042;10.088;2022-10-28T00:20:43;96097.94;;;9.67;71.56
75166;BME280;63747;48.042;10.088;2022-10-28T00:23:44;96096.66;;;9.71;71.54
75166;BME280;63747;48.042;10.088;2022-10-28T00:26:45;96096.66;;;9.71;71.68
75166;BME280;63747;48.042;10.088;2022-10-28T00:29:46;96095.69;;;9.72;71.63
75166;BME280;63747;48.042;10.088;2022-10-28T00:32:47;96093.34;;;9.69;71.71
75166;BME280;63747;48.042;10.088;2022-10-28T00:35:47;96096.41;;;9.65;71.72
75166;BME280;63747;48.042;10.088;2022-10-28T00:38:50;96098.09;;;9.66;71.80
75166;BME280;63747;48.042;10.088;2022-10-28T00:41:55;96099.91;;;9.65;71.81
75166;BME280;63747;48.042;10.088;2022-10-28T00:44:58;96098.75;;;9.68;71.76
75166;BME280;63747;48.042;10.088;2022-10-28T00:48:01;96096.25;;;9.66;71.70
75166;BME280;63747;48.042;10.088;2022-10-28T00:51:02;96090.13;;;9.66;71.78
75166;BME280;63747;48.042;10.088;2022-10-28T00:54:04;96094.44;;;9.67;71.64
75166;BME280;63747;48.042;10.088;2022-10-28T00:57:12;96095.44;;;9.66;71.68
75166;BME280;63747;48.042;10.088;2022-10-28T01:00:15;96093.47;;;9.68;71.39
75166;BME280;63747;48.042;10.088;2022-10-28T01:03:16;96086.50;;;9.67;71.51
75166;BME280;63747;48.042;10.088;2022-10-28T01:06:17;96084.84;;;9.66;71.49
75166;BME280;63747;48.042;10.088;2022-10-28T01:09:18;96089.47;;;9.64;71.29
75166;BME280;63747;48.042;10.088;2022-10-28T01:16:06;96071.78;;;9.55;71.61
75166;BME280;63747;48.042;10.088;2022-10-28T01:22:24;96083.25;;;9.45;71.88
75166;BME280;63747;48.042;10.088;2022-10-28T01:25:52;96076.00;;;9.47;71.86
75166;BME280;63747;48.042;10.088;2022-10-28T01:35:46;96065.88;;;9.43;71.45
75166;BME280;63747;48.042;10.088;2022-10-28T01:38:54;96062.38;;;9.42;71.54
75166;BME280;63747;48.042;10.088;2022-10-28T01:45:22;96070.59;;;9.39;71.54
75166;BME280;63747;48.042;10.088;2022-10-28T01:48:38;96071.84;;;9.35;71.75
75166;BME280;63747;48.042;10.088;2022-10-28T01:51:44;96079.78;;;9.35;71.38
75166;BME280;63747;48.042;10.088;2022-10-28T01:54:50;96071.59;;;9.38;71.47
75166;BME280;63747;48.042;10.088;2022-10-28T01:57:55;96080.19;;;9.40;71.20
75166;BME280;63747;48.042;10.088;2022-10-28T02:00:59;96071.03;;;9.35;71.19
75166;BME280;63747;48.042;10.088;2022-10-28T02:04:01;96072.16;;;9.32;71.49
75166;BME280;63747;48.042;10.088;2022-10-28T02:07:03;96066.88;;;9.32;71.25
75166;BME280;63747;48.042;10.088;2022-10-28T02:10:10;96065.19;;;9.31;71.08
75166;BME280;63747;48.042;10.088;2022-10-28T02:13:18;96054.19;;;9.26;70.86
75166;BME280;63747;48.042;10.088;2022-10-28T02:16:49;96061.28;;;9.25;71.11
75166;BME280;63747;48.042;10.088;2022-10-28T02:20:03;96060.59;;;9.23;71.00
75166;BME280;63747;48.042;10.088;2022-10-28T02:26:37;96060.03;;;9.20;71.01
75166;BME280;63747;48.042;10.088;2022-10-28T02:29:49;96052.25;;;9.18;71.17
75166;BME280;63747;48.042;10.088;2022-10-28T02:32:58;96046.41;;;9.15;71.08
75166;BME280;63747;48.042;10.088;2022-10-28T02:36:03;96044.06;;;9.12;71.02
75166;BME280;63747;48.042;10.088;2022-10-28T02:39:06;96058.28;;;9.11;71.14
75166;BME280;63747;48.042;10.088;2022-10-28T02:42:11;96054.78;;;9.10;71.26
75166;BME280;63747;48.042;10.088;2022-10-28T02:45:21;96051.44;;;9.08;71.51
75166;BME280;63747;48.042;10.088;2022-10-28T02:48:28;96049.66;;;9.09;71.05
75166;BME280;63747;48.042;10.088;2022-10-28T02:51:35;96050.75;;;9.06;71.34
75166;BME280;63747;48.042;10.088;2022-10-28T02:54:44;96048.25;;;9.05;71.25
75166;BME280;63747;48.042;10.088;2022-10-28T02:57:49;96051.31;;;9.00;71.19
75166;BME280;63747;48.042;10.088;2022-10-28T03:00:50;96053.28;;;8.98;71.22
75166;BME280;63747;48.042;10.088;2022-10-28T03:03:51;96044.94;;;8.93;71.20
75166;BME280;63747;48.042;10.088;2022-10-28T03:06:52;96040.94;;;8.89;71.41
75166;BME280;63747;48.042;10.088;2022-10-28T03:09:52;96037.88;;;8.84;71.29
75166;BME280;63747;48.042;10.088;2022-10-28T03:12:53;96045.81;;;8.84;71.48
75166;BME280;63747;48.042;10.088;2022-10-28T03:15:54;96046.63;;;8.84;71.27
75166;BME280;63747;48.042;10.088;2022-10-28T03:18:54;96046.22;;;8.79;71.43
75166;BME280;63747;48.042;10.088;2022-10-28T03:21:55;96049.16;;;8.76;71.43
75166;BME280;63747;48.042;10.088;2022-10-28T03:24:56;96048.31;;;8.76;71.45
75166;BME280;63747;48.042;10.088;2022-10-28T03:27:56;96054.84;;;8.71;71.56
75166;BME280;63747;48.042;10.088;2022-10-28T03:30:57;96062.38;;;8.66;71.46
75166;BME280;63747;48.042;10.088;2022-10-28T03:33:58;96058.06;;;8.65;71.60
75166;BME280;63747;48.042;10.088;2022-10-28T03:36:58;96054.88;;;8.62;71.66
75166;BME280;63747;48.042;10.088;2022-10-28T03:39:59;96055.72;;;8.62;71.55
75166;BME280;63747;48.042;10.088;2022-10-28T03:43:01;96052.25;;;8.62;71.51
75166;BME280;63747;48.042;10.088;2022-10-28T03:46:02;96050.00;;;8.57;71.62
75166;BME280;63747;48.042;10.088;2022-10-28T03:49:03;96040.56;;;8.55;71.67
75166;BME280;63747;48.042;10.088;2022-10-28T03:52:04;96044.16;;;8.54;71.75
75166;BME280;63747;48.042;10.088;2022-10-28T03:55:04;96043.88;;;8.57;71.81
75166;BME280;63747;48.042;10.088;2022-10-28T03:58:05;96046.53;;;8.57;71.69
75166;BME280;63747;48.042;10.088;2022-10-28T04:01:06;96040.00;;;8.51;71.64
75166;BME280;63747;48.042;10.088;2022-10-28T04:04:07;96032.06;;;8.51;71.72
75166;BME280;63747;48.042;10.088;2022-10-28T04:07:08;96037.50;;;8.50;71.73
75166;BME280;63747;48.042;10.088;2022-10-28T04:10:09;96037.75;;;8.47;71.61
75166;BME280;63747;48.042;10.088;2022-10-28T04:13:11;96041.94;;;8.49;71.71
75166;BME280;63747;48.042;10.088;2022-10-28T04:16:12;96048.06;;;8.50;71.65
75166;BME280;63747;48.042;10.088;2022-10-28T04:19:12;96056.25;;;8.47;71.69
75166;BME280;63747;48.042;10.088;2022-10-28T04:22:13;96059.72;;;8.47;71.67
75166;BME280;63747;48.042;10.088;2022-10-28T04:25:14;96057.22;;;8.46;71.79
75166;BME280;63747;48.042;10.088;2022-10-28T04:28:15;96047.78;;;8.43;71.73
75166;BME280;63747;48.042;10.088;2022-10-28T04:31:15;96041.69;;;8.42;71.67
75166;BME280;63747;48.042;10.088;2022-10-28T04:34:16;96045.97;;;8.43;71.58
75166;BME280;63747;48.042;10.088;2022-10-28T04:37:17;96038.19;;;8.42;71.60
75166;BME280;63747;48.042;10.088;2022-10-28T04:40:17;96040.28;;;8.38;71.68
75166;BME280;63747;48.042;10.088;2022-10-28T04:43:18;96036.94;;;8.36;71.68
75166;BME280;63747;48.042;10.088;2022-10-28T04:46:19;96039.72;;;8.35;71.66
75166;BME280;63747;48.042;10.088;2022-10-28T04:49:19;96038.19;;;8.32;71.71
75166;BME280;63747;48.042;10.088;2022-10-28T04:52:20;96033.88;;;8.31;71.59
75166;BME280;63747;48.042;10.088;2022-10-28T04:55:21;96032.06;;;8.32;71.64
75166;BME280;63747;48.042;10.088;2022-10-28T04:58:22;96038.47;;;8.29;71.56
75166;BME280;63747;48.042;10.088;2022-10-28T05:01:23;96030.81;;;8.26;71.69
75166;BME280;63747;48.042;10.088;2022-10-28T05:04:24;96030.97;;;8.25;71.67
75166;BME280;63747;48.042;10.088;2022-10-28T05:07:24;96026.81;;;8.22;71.74
75166;BME280;63747;48.042;10.088;2022-10-28T05:10:25;96024.16;;;8.22;71.66
75166;BME280;63747;48.042;10.088;2022-10-28T05:13:26;96011.09;;;8.21;71.70
75166;BME280;63747;48.042;10.088;2022-10-28T05:16:27;96011.94;;;8.21;71.83
75166;BME280;63747;48.042;10.088;2022-10-28T05:19:27;96016.38;;;8.21;71.88
75166;BME280;63747;48.042;10.088;2022-10-28T05:22:28;96019.13;;;8.19;71.81
75166;BME280;63747;48.042;10.088;2022-10-28T05:25:29;96010.22;;;8.20;71.67
75166;BME280;63747;48.042;10.088;2022-10-28T05:28:29;96005.81;;;8.21;71.92
75166;BME280;63747;48.042;10.088;2022-10-28T05:31:30;96009.28;;;8.21;71.78
75166;BME280;63747;48.042;10.088;2022-10-28T05:34:31;96011.63;;;8.24;71.78
75166;BME280;63747;48.042;10.088;2022-10-28T05:37:32;96009.97;;;8.23;71.78
75166;BME280;63747;48.042;10.088;2022-10-28T05:40:33;96010.81;;;8.24;71.79
75166;BME280;63747;48.042;10.088;2022-10-28T05:43:33;96014.97;;;8.26;71.92
75166;BME280;63747;48.042;10.088;2022-10-28T05:46:34;96017.78;;;8.34;71.91
75166;BME280;63747;48.042;10.088;2022-10-28T05:49:35;96027.91;;;8.39;71.83
75166;BME280;63747;48.042;10.088;2022-10-28T05:52:36;96026.91;;;8.40;71.79
75166;BME280;63747;48.042;10.088;2022-10-28T05:55:36;96038.47;;;8.49;71.81
75166;BME280;63747;48.042;10.088;2022-10-28T05:58:37;96040.56;;;8.55;71.63
75166;BME280;63747;48.042;10.088;2022-10-28T06:01:38;96050.84;;;8.58;71.55
75166;BME280;63747;48.042;10.088;2022-10-28T06:04:40;96050.28;;;8.64;71.48
75166;BME280;63747;48.042;10.088;2022-10-28T06:07:42;96048.06;;;8.69;71.34
75166;BME280;63747;48.042;10.088;2022-10-28T06:10:49;96052.06;;;8.73;71.44
75166;BME280;63747;48.042;10.088;2022-10-28T06:13:50;96052.78;;;8.75;71.47
75166;BME280;63747;48.042;10.088;2022-10-28T06:16:51;96053.47;;;8.77;71.35
75166;BME280;63747;48.042;10.088;2022-10-28T06:19:52;96054.16;;;8.79;71.23
75166;BME280;63747;48.042;10.088;2022-10-28T06:22:54;96062.38;;;8.76;71.22
75166;BME280;63747;48.042;10.088;2022-10-28T06:25:57;96062.53;;;8.75;71.18
75166;BME280;63747;48.042;10.088;2022-10-28T06:28:58;96060.84;;;8.74;71.31
75166;BME280;63747;48.042;10.088;2022-10-28T06:31:58;96067.81;;;8.75;71.24
75166;BME280;63747;48.042;10.088;2022-10-28T06:34:59;96063.34;;;8.75;71.35
75166;BME280;63747;48.042;10.088;2022-10-28T06:38:00;96071.97;;;8.77;71.20
75166;BME280;63747;48.042;10.088;2022-10-28T06:41:01;96080.84;;;8.86;71.22
75166;BME280;63747;48.042;10.088;2022-10-28T06:44:01;96074.19;;;8.91;71.01
75166;BME280;63747;48.042;10.088;2022-10-28T06:47:02;96071.13;;;8.96;71.07
75166;BME280;63747;48.042;10.088;2022-10-28T06:50:03;96078.75;;;8.99;71.16
75166;BME280;63747;48.042;10.088;2022-10-28T06:53:04;96069.84;;;9.00;71.12
75166;BME280;63747;48.042;10.088;2022-10-28T06:56:05;96068.59;;;9.04;71.28
75166;BME280;63747;48.042;10.088;2022-10-28T06:59:07;96064.91;;;9.15;71.30
75166;BME280;63747;48.042;10.088;2022-10-28T07:02:11;96074.66;;;9.24;71.15
75166;BME280;63747;48.042;10.088;2022-10-28T07:05:11;96065.19;;;9.31;71.25
75166;BME280;63747;48.042;10.088;2022-10-28T07:08:12;96065.63;;;9.36;71.16
75166;BME280;63747;48.042;10.088;2022-10-28T07:11:13;96075.47;;;9.44;70.98
75166;BME280;63747;48.042;10.088;2022-10-28T07:14:14;96070.69;;;9.47;71.04
75166;BME280;63747;48.042;10.088;2022-10-28T07:17:15;96067.06;;;9.48;70.86
75166;BME280;63747;48.042;10.088;2022-10-28T07:20:15;96073.50;;;9.46;70.99
75166;BME280;63747;48.042;10.088;2022-10-28T07:23:17;96071.41;;;9.49;71.01
75166;BME280;63747;48.042;10.088;2022-10-28T07:26:18;96082.38;;;9.55;70.83
75166;BME280;63747;48.042;10.088;2022-10-28T07:29:18;96093.38;;;9.60;70.99
75166;BME280;63747;48.042;10.088;2022-10-28T07:32:19;96096.09;;;9.68;70.89
75166;BME280;63747;48.042;10.088;2022-10-28T07:35:20;96087.84;;;9.80;70.59
75166;BME280;63747;48.042;10.088;2022-10-28T07:38:21;96089.75;;;9.88;70.27
75166;BME280;63747;48.042;10.088;2022-10-28T07:41:22;96107.03;;;9.92;69.96
75166;BME280;63747;48.042;10.088;2022-10-28T07:44:23;96124.81;;;10.00;70.25
75166;BME280;63747;48.042;10.088;2022-10-28T07:47:23;96120.06;;;10.03;70.14
75166;BME280;63747;48.042;10.088;2022-10-28T07:50:24;96098.97;;;10.12;70.25
75166;BME280;63747;48.042;10.088;2022-10-28T07:53:25;96106.94;;;10.29;70.15
75166;BME280;63747;48.042;10.088;2022-10-28T07:56:25;96112.19;;;10.39;70.09
75166;BME280;63747;48.042;10.088;2022-10-28T07:59:26;96120.06;;;10.49;69.63
75166;BME280;63747;48.042;10.088;2022-10-28T08:02:27;96114.53;;;10.60;69.79
75166;BME280;63747;48.042;10.088;2022-10-28T08:05:27;96110.41;;;10.75;69.87
75166;BME280;63747;48.042;10.088;2022-10-28T08:08:28;96110.34;;;10.85;69.64
75166;BME280;63747;48.042;10.088;2022-10-28T08:11:29;96120.06;;;11.02;69.40
75166;BME280;63747;48.042;10.088;2022-10-28T08:14:30;96121.66;;;11.13;68.87
75166;BME280;63747;48.042;10.088;2022-10-28T08:17:30;96124.75;;;11.26;69.02
75166;BME280;63747;48.042;10.088;2022-10-28T08:20:31;96129.88;;;11.46;69.01
75166;BME280;63747;48.042;10.088;2022-10-28T08:23:32;96124.09;;;11.58;69.01
75166;BME280;63747;48.042;10.088;2022-10-28T08:26:33;96110.91;;;11.66;68.80
75166;BME280;63747;48.042;10.088;2022-10-28T08:29:33;96114.25;;;11.77;69.05
75166;BME280;63747;48.042;10.088;2022-10-28T08:32:34;96114.66;;;11.90;68.55
75166;BME280;63747;48.042;10.088;2022-10-28T08:35:35;96115.06;;;12.03;68.30
75166;BME280;63747;48.042;10.088;2022-10-28T08:38:36;96123.28;;;12.18;68.18
75166;BME280;63747;48.042;10.088;2022-10-28T08:41:44;96115.50;;;12.33;68.40
75166;BME280;63747;48.042;10.088;2022-10-28T08:48:44;96112.09;;;12.65;68.23
75166;BME280;63747;48.042;10.088;2022-10-28T08:51:53;96114.94;;;12.79;67.77
75166;BME280;63747;48.042;10.088;2022-10-28T08:55:04;96109.28;;;12.91;67.23
75166;BME280;63747;48.042;10.088;2022-10-28T09:01:34;96104.00;;;13.15;66.89
75166;BME280;63747;48.042;10.088;2022-10-28T09:04:40;96098.84;;;13.22;66.34
75166;BME280;63747;48.042;10.088;2022-10-28T09:07:41;96107.47;;;13.32;65.81
75166;BME280;63747;48.042;10.088;2022-10-28T09:14:20;96100.94;;;13.59;65.06
75166;BME280;63747;48.042;10.088;2022-10-28T09:17:45;96101.22;;;13.80;65.32
75166;BME280;63747;48.042;10.088;2022-10-28T09:20:52;96094.84;;;13.98;64.74
75166;BME280;63747;48.042;10.088;2022-10-28T09:23:56;96108.50;;;14.03;64.69
75166;BME280;63747;48.042;10.088;2022-10-28T09:27:08;96102.44;;;14.09;64.52
75166;BME280;63747;48.042;10.088;2022-10-28T09:36:42;96089.69;;;14.35;64.03
75166;BME280;63747;48.042;10.088;2022-10-28T09:39:51;96086.75;;;14.53;64.17
75166;BME280;63747;48.042;10.088;2022-10-28T09:43:05;96098.50;;;14.67;64.12
75166;BME280;63747;48.042;10.088;2022-10-28T09:46:15;96087.34;;;14.86;63.93
75166;BME280;63747;48.042;10.088;2022-10-28T09:49:25;96101.59;;;15.02;64.24
75166;BME280;63747;48.042;10.088;2022-10-28T09:52:38;96098.59;;;15.19;64.26
75166;BME280;63747;48.042;10.088;2022-10-28T09:55:41;96106.97;;;15.39;63.60
75166;BME280;63747;48.042;10.088;2022-10-28T09:58:45;96093.94;;;15.59;62.90
75166;BME280;63747;48.042;10.088;2022-10-28T10:01:46;96110.16;;;15.87;62.33
75166;BME280;63747;48.042;10.088;2022-10-28T10:04:47;96108.50;;;16.16;61.65
75166;BME280;63747;48.042;10.088;2022-10-28T10:07:52;96100.56;;;16.37;61.14
75166;BME280;63747;48.042;10.088;2022-10-28T10:10:58;96104.09;;;16.59;60.28
75166;BME280;63747;48.042;10.088;2022-10-28T10:14:11;96102.34;;;16.88;59.66
75166;BME280;63747;48.042;10.088;2022-10-28T10:17:20;96098.47;;;17.11;57.58
75166;BME280;63747;48.042;10.088;2022-10-28T10:20:22;96095.28;;;17.23;58.24
75166;BME280;63747;48.042;10.088;2022-10-28T10:23:28;96098.09;;;17.36;59.24
75166;BME280;63747;48.042;10.088;2022-10-28T10:26:31;96088.44;;;17.42;57.57
75166;BME280;63747;48.042;10.088;2022-10-28T10:29:33;96090.31;;;17.48;57.02
75166;BME280;63747;48.042;10.088;2022-10-28T10:32:35;96087.28;;;17.51;56.92
75166;BME280;63747;48.042;10.088;2022-10-28T10:35:36;96091.25;;;17.61;56.87
75166;BME280;63747;48.042;10.088;2022-10-28T10:38:38;96082.91;;;17.78;58.27
75166;BME280;63747;48.042;10.088;2022-10-28T10:41:45;96088.97;;;17.93;57.33
75166;BME280;63747;48.042;10.088;2022-10-28T10:44:57;96082.84;;;17.99;56.03
75166;BME280;63747;48.042;10.088;2022-10-28T10:48:10;96073.06;;;18.19;56.96
75166;BME280;63747;48.042;10.088;2022-10-28T10:51:22;96057.66;;;18.48;56.25
75166;BME280;63747;48.042;10.088;2022-10-28T10:54:27;96066.78;;;18.54;57.05
75166;BME280;63747;48.042;10.088;2022-10-28T10:57:28;96057.69;;;18.55;55.78
75166;BME280;63747;48.042;10.088;2022-10-28T11:00:44;96056.97;;;18.87;56.18
75166;BME280;63747;48.042;10.088;2022-10-28T11:04:16;96059.09;;;19.38;54.93
75166;BME280;63747;48.042;10.088;2022-10-28T11:07:18;96057.41;;;19.70;53.34
75166;BME280;63747;48.042;10.088;2022-10-28T11:10:20;96061.09;;;19.82;54.75
75166;BME280;63747;48.042;10.088;2022-10-28T11:13:25;96059.78;;;20.11;53.73
75166;BME280;63747;48.042;10.088;2022-10-28T11:16:26;96049.97;;;20.37;53.56
75166;BME280;63747;48.042;10.088;2022-10-28T11:19:30;96050.72;;;20.57;54.37
75166;BME280;63747;48.042;10.088;2022-10-28T11:22:41;96058.94;;;20.69;52.27
75166;BME280;63747;48.042;10.088;2022-10-28T11:25:49;96060.28;;;20.53;51.47
75166;BME280;63747;48.042;10.088;2022-10-28T11:29:08;96064.94;;;20.71;50.73
75166;BME280;63747;48.042;10.088;2022-10-28T11:35:47;96060.97;;;21.05;48.63
75166;BME280;63747;48.042;10.088;2022-10-28T11:45:37;96049.16;;;21.38;44.69
75166;BME280;63747;48.042;10.088;2022-10-28T11:52:16;96044.81;;;21.80;44.79
75166;BME280;63747;48.042;10.088;2022-10-28T11:55:31;96038.31;;;22.06;43.51
75166;BME280;63747;48.042;10.088;2022-10-28T11:58:46;96034.66;;;22.19;42.95
75166;BME280;63747;48.042;10.088;2022-10-28T12:01:58;96033.28;;;22.28;42.96
75166;BME280;63747;48.042;10.088;2022-10-28T12:05:19;96039.97;;;22.25;42.07
75166;BME280;63747;48.042;10.088;2022-10-28T12:12:01;96023.03;;;22.48;40.95
75166;BME280;63747;48.042;10.088;2022-10-28T12:15:16;96010.44;;;22.42;41.51
75166;BME280;63747;48.042;10.088;2022-10-28T12:18:27;96013.94;;;21.94;41.80
75166;BME280;63747;48.042;10.088;2022-10-28T12:21:39;96019.88;;;21.60;42.54
75166;BME280;63747;48.042;10.088;2022-10-28T12:24:43;96014.19;;;21.50;42.42
75166;BME280;63747;48.042;10.088;2022-10-28T12:27:47;96011.84;;;21.53;42.23
75166;BME280;63747;48.042;10.088;2022-10-28T12:30:50;95998.00;;;21.50;42.03
75166;BME280;63747;48.042;10.088;2022-10-28T12:33:55;96004.44;;;21.49;41.79
75166;BME280;63747;48.042;10.088;2022-10-28T12:37:03;96012.13;;;21.70;41.99
75166;BME280;63747;48.042;10.088;2022-10-28T12:40:16;95996.19;;;21.87;42.38
75166;BME280;63747;48.042;10.088;2022-10-28T12:43:28;95990.41;;;22.01;41.60
75166;BME280;63747;48.042;10.088;2022-10-28T12:56:41;95982.13;;;23.05;41.32
75166;BME280;63747;48.042;10.088;2022-10-28T12:59:55;95981.69;;;23.20;41.19
75166;BME280;63747;48.042;10.088;2022-10-28T13:03:05;95987.25;;;23.25;41.44
75166;BME280;63747;48.042;10.088;2022-10-28T13:09:54;95982.19;;;23.40;41.37
75166;BME280;63747;48.042;10.088;2022-10-28T13:23:21;95983.78;;;23.06;41.30
75166;BME280;63747;48.042;10.088;2022-10-28T13:26:28;95988.56;;;22.92;41.07
75166;BME280;63747;48.042;10.088;2022-10-28T13:29:32;95978.44;;;22.88;41.53
75166;BME280;63747;48.042;10.088;2022-10-28T13:32:35;95982.00;;;23.00;41.99
75166;BME280;63747;48.042;10.088;2022-10-28T13:35:37;95975.91;;;23.04;41.80
75166;BME280;63747;48.042;10.088;2022-10-28T13:38:39;95980.25;;;23.05;41.37
75166;BME280;63747;48.042;10.088;2022-10-28T13:41:40;95983.19;;;23.04;40.65
75166;BME280;63747;48.042;10.088;2022-10-28T13:44:51;95980.75;;;22.72;41.28
75166;BME280;63747;48.042;10.088;2022-10-28T13:51:29;95996.47;;;22.15;42.27
75166;BME280;63747;48.042;10.088;2022-10-28T13:54:35;95990.28;;;21.96;43.02
75166;BME280;63747;48.042;10.088;2022-10-28T13:58:19;95994.53;;;21.86;43.27
75166;BME280;63747;48.042;10.088;2022-10-28T14:04:42;95979.38;;;21.85;42.97
75166;BME280;63747;48.042;10.088;2022-10-28T14:11:04;95977.31;;;21.80;43.76
75166;BME280;63747;48.042;10.088;2022-10-28T14:14:05;95977.03;;;21.70;44.26
75166;BME280;63747;48.042;10.088;2022-10-28T14:17:18;95979.91;;;21.75;45.15
75166;BME280;63747;48.042;10.088;2022-10-28T14:20:24;95983.97;;;21.84;45.20
75166;BME280;63747;48.042;10.088;2022-10-28T14:26:27;95980.41;;;22.02;45.71
75166;BME280;63747;48.042;10.088;2022-10-28T14:29:27;95972.38;;;22.14;45.89
75166;BME280;63747;48.042;10.088;2022-10-28T14:35:39;95974.31;;;22.25;45.24
75166;BME280;63747;48.042;10.088;2022-10-28T14:51:38;95973.91;;;22.10;44.46
75166;BME280;63747;48.042;10.088;2022-10-28T14:54:48;95974.94;;;22.09;45.04
75166;BME280;63747;48.042;10.088;2022-10-28T14:57:49;95970.56;;;21.96;47.36
75166;BME280;63747;48.042;10.088;2022-10-28T15:01:19;95987.25;;;21.86;48.53
75166;BME280;63747;48.042;10.088;2022-10-28T15:04:20;95990.22;;;21.78;48.35
75166;BME280;63747;48.042;10.088;2022-10-28T15:07:22;95986.47;;;21.79;48.38
75166;BME280;63747;48.042;10.088;2022-10-28T15:10:30;95989.84;;;21.74;47.73
75166;BME280;63747;48.042;10.088;2022-10-28T15:13:35;95990.84;;;21.62;47.19
75166;BME280;63747;48.042;10.088;2022-10-28T15:16:44;95981.66;;;21.44;47.69
75166;BME280;63747;48.042;10.088;2022-10-28T15:19:49;95981.56;;;21.33;47.44
75166;BME280;63747;48.042;10.088;2022-10-28T15:22:51;95984.00;;;21.16;47.38
75166;BME280;63747;48.042;10.088;2022-10-28T15:26:12;95981.50;;;20.89;47.46
75166;BME280;63747;48.042;10.088;2022-10-28T15:29:13;95980.34;;;20.72;47.95
75166;BME280;63747;48.042;10.088;2022-10-28T15:32:25;95980.63;;;20.64;48.78
75166;BME280;63747;48.042;10.088;2022-10-28T15:38:36;95977.84;;;20.46;48.50
75166;BME280;63747;48.042;10.088;2022-10-28T15:41:42;95981.00;;;20.29;50.03
75166;BME280;63747;48.042;10.088;2022-10-28T15:44:44;95972.19;;;20.16;50.26
75166;BME280;63747;48.042;10.088;2022-10-28T15:47:46;95970.78;;;20.06;50.47
75166;BME280;63747;48.042;10.088;2022-10-28T15:51:17;95970.88;;;19.87;51.36
75166;BME280;63747;48.042;10.088;2022-10-28T15:54:18;95977.50;;;19.71;52.10
75166;BME280;63747;48.042;10.088;2022-10-28T15:57:21;95972.34;;;19.56;52.45
75166;BME280;63747;48.042;10.088;2022-10-28T16:00:27;95975.50;;;19.40;52.98
75166;BME280;63747;48.042;10.088;2022-10-28T16:03:45;95978.44;;;19.25;53.75
75166;BME280;63747;48.042;10.088;2022-10-28T16:06:46;95978.63;;;19.10;54.35
75166;BME280;63747;48.042;10.088;2022-10-28T16:09:48;95982.19;;;19.04;54.87
75166;BME280;63747;48.042;10.088;2022-10-28T16:12:51;95989.59;;;18.89;54.90
75166;BME280;63747;48.042;10.088;2022-10-28T16:15:54;95984.00;;;18.70;54.97
75166;BME280;63747;48.042;10.088;2022-10-28T16:19:27;95980.25;;;18.58;55.67
75166;BME280;63747;48.042;10.088;2022-10-28T16:22:30;95975.06;;;18.43;56.19
75166;BME280;63747;48.042;10.088;2022-10-28T16:25:34;95984.53;;;18.39;55.92
75166;BME280;63747;48.042;10.088;2022-10-28T16:28:34;95998.13;;;18.25;55.83
75166;BME280;63747;48.042;10.088;2022-10-28T16:31:35;96000.66;;;17.91;56.57
75166;BME280;63747;48.042;10.088;2022-10-28T16:34:36;96005.22;;;17.56;56.66
75166;BME280;63747;48.042;10.088;2022-10-28T16:37:37;96004.13;;;17.44;57.70
75166;BME280;63747;48.042;10.088;2022-10-28T16:40:38;96006.03;;;17.50;57.61
75166;BME280;63747;48.042;10.088;2022-10-28T16:43:39;96010.50;;;17.43;57.78
75166;BME280;63747;48.042;10.088;2022-10-28T16:46:40;96016.97;;;17.27;57.36
75166;BME280;63747;48.042;10.088;2022-10-28T16:49:40;96016.25;;;17.12;58.30
75166;BME280;63747;48.042;10.088;2022-10-28T16:52:41;96018.66;;;17.07;58.40
75166;BME280;63747;48.042;10.088;2022-10-28T16:55:42;96023.47;;;17.11;58.59
75166;BME280;63747;48.042;10.088;2022-10-28T16:58:43;96023.03;;;17.08;58.26
75166;BME280;63747;48.042;10.088;2022-10-28T17:01:43;96014.47;;;16.98;58.86
75166;BME280;63747;48.042;10.088;2022-10-28T17:04:44;96016.53;;;16.96;59.14
75166;BME280;63747;48.042;10.088;2022-10-28T17:07:45;96001.84;;;16.92;58.83
75166;BME280;63747;48.042;10.088;2022-10-28T17:10:46;96011.69;;;16.84;58.98
75166;BME280;63747;48.042;10.088;2022-10-28T17:13:47;96016.53;;;16.74;58.96
75166;BME280;63747;48.042;10.088;2022-10-28T17:16:47;96007.59;;;16.46;59.10
75166;BME280;63747;48.042;10.088;2022-10-28T17:19:48;96006.22;;;16.50;59.53
75166;BME280;63747;48.042;10.088;2022-10-28T17:22:49;96004.34;;;16.50;59.94
75166;BME280;63747;48.042;10.088;2022-10-28T17:25:57;96006.22;;;16.50;59.99
75166;BME280;63747;48.042;10.088;2022-10-28T17:28:58;96008.41;;;16.46;60.29
75166;BME280;63747;48.042;10.088;2022-10-28T17:31:59;96003.19;;;16.38;60.14
75166;BME280;63747;48.042;10.088;2022-10-28T17:34:59;96011.06;;;16.25;60.88
75166;BME280;63747;48.042;10.088;2022-10-28T17:38:00;96016.53;;;16.17;60.59
75166;BME280;63747;48.042;10.088;2022-10-28T17:41:01;96007.72;;;16.01;61.41
75166;BME280;63747;48.042;10.088;2022-10-28T17:44:02;96007.81;;;15.93;61.49
75166;BME280;63747;48.042;10.088;2022-10-28T17:47:03;96017.59;;;15.86;61.33
75166;BME280;63747;48.042;10.088;2022-10-28T17:50:04;96014.75;;;15.88;61.47
75166;BME280;63747;48.042;10.088;2022-10-28T17:53:05;96021.94;;;15.87;61.55
75166;BME280;63747;48.042;10.088;2022-10-28T17:56:06;96018.16;;;15.82;61.41
75166;BME280;63747;48.042;10.088;2022-10-28T17:59:07;96006.06;;;15.71;61.81
75166;BME280;63747;48.042;10.088;2022-10-28T18:02:09;96003.69;;;15.61;62.42